Time;durP1;ratioP1;P1;durP2;ratioP2;P2;SDS_P1;SDS_P2;PMS_P1;PMS_P2;Temp;Humidity;BMP_temperature;BMP_pressure;BME280_temperature;BME280_humidity;BME280_pressure;Samples;Min_cycle;Max_cycle;Signal;HPM_P1;HPM_P2
2024/02/14 00:01:29;;;;;;;3.25;2.10;;;;;;;0.46;100.00;98238.41;1224825;75;2922785;-66
2024/02/14 00:04:02;;;;;;;3.00;2.40;;;;;;;0.33;100.00;98244.25;1225139;75;2916272;-66
2024/02/14 00:06:39;;;;;;;4.45;3.30;;;;;;;0.13;100.00;98243.97;1224636;75;2919562;-65
2024/02/14 00:09:12;;;;;;;3.70;2.80;;;;;;;0.16;100.00;98242.41;1224769;75;2923869;-66
2024/02/14 00:11:45;;;;;;;3.90;2.55;;;;;;;0.13;100.00;98237.81;1224198;75;2920972;-66
2024/02/14 00:14:20;;;;;;;4.15;2.90;;;;;;;0.31;100.00;98240.41;1224444;75;2923118;-65
2024/02/14 00:16:55;;;;;;;2.70;2.15;;;;;;;0.32;100.00;98245.44;1225246;75;2923156;-66
2024/02/14 00:19:28;;;;;;;3.70;2.70;;;;;;;0.30;100.00;98241.59;1224374;75;2920914;-65
2024/02/14 00:22:01;;;;;;;2.80;1.90;;;;;;;0.30;100.00;98231.59;1225600;75;2917024;-65
2024/02/14 00:24:35;;;;;;;3.45;1.85;;;;;;;0.08;100.00;98239.00;1225011;75;2914601;-64
2024/02/14 00:27:08;;;;;;;5.15;2.85;;;;;;;-0.04;100.00;98237.50;1224721;75;2917644;-65
2024/02/14 00:29:43;;;;;;;4.40;2.60;;;;;;;-0.18;100.00;98239.47;1225387;75;2921675;-64
2024/02/14 00:32:19;;;;;;;4.20;2.75;;;;;;;-0.11;100.00;98232.13;1223873;75;2924169;-65
2024/02/14 00:34:52;;;;;;;4.20;2.85;;;;;;;0.06;100.00;98235.16;1225017;75;2918324;-65
2024/02/14 00:37:25;;;;;;;3.15;2.20;;;;;;;0.12;100.00;98244.34;1224582;75;2916262;-66
2024/02/14 00:39:58;;;;;;;2.90;1.80;;;;;;;-0.06;100.00;98255.94;1224466;75;2924128;-66
2024/02/14 00:42:31;;;;;;;3.30;2.10;;;;;;;-0.05;100.00;98254.03;1225108;75;2916338;-66
2024/02/14 00:45:03;;;;;;;3.90;2.15;;;;;;;-0.20;100.00;98260.63;1224904;75;2926844;-65
2024/02/14 00:47:40;;;;;;;2.50;2.00;;;;;;;-0.08;100.00;98260.94;1224569;67;2926818;-67
2024/02/14 00:50:13;;;;;;;2.45;1.60;;;;;;;-0.02;100.00;98261.34;1225069;75;2913835;-66
2024/02/14 00:52:46;;;;;;;2.50;1.80;;;;;;;-0.03;100.00;98265.94;1224081;75;2920646;-66
2024/02/14 00:55:19;;;;;;;2.35;1.50;;;;;;;-0.21;100.00;98270.63;1224211;75;2921066;-64
2024/02/14 00:57:53;;;;;;;4.50;2.85;;;;;;;-0.18;100.00;98277.13;1224676;75;2916422;-64
2024/02/14 01:00:26;;;;;;;5.20;3.15;;;;;;;-0.13;100.00;98279.44;1224601;75;2920099;-67
2024/02/14 01:03:02;;;;;;;5.15;2.70;;;;;;;-0.07;100.00;98273.28;1223726;75;2923380;-69
2024/02/14 01:05:35;;;;;;;4.40;2.60;;;;;;;-0.09;100.00;98269.44;1225118;75;2921714;-66
2024/02/14 01:08:08;;;;;;;3.20;2.05;;;;;;;-0.12;100.00;98267.50;1224588;75;2925217;-66
2024/02/14 01:10:41;;;;;;;2.95;2.05;;;;;;;-0.16;100.00;98270.22;1224592;75;2917419;-66
2024/02/14 01:13:14;;;;;;;3.30;1.80;;;;;;;-0.24;100.00;98274.06;1224411;75;2922123;-65
2024/02/14 01:15:47;;;;;;;3.25;1.45;;;;;;;-0.24;100.00;98276.75;1224469;75;2918463;-68
2024/02/14 01:18:22;;;;;;;2.45;1.70;;;;;;;-0.31;100.00;98274.88;1223848;75;2925126;-65
2024/02/14 01:20:56;;;;;;;1.95;1.70;;;;;;;-0.51;100.00;98271.78;1225097;75;2915338;-66
2024/02/14 01:23:29;;;;;;;2.60;1.90;;;;;;;-0.66;100.00;98268.34;1223936;75;2925987;-66
2024/02/14 01:26:01;;;;;;;2.65;1.85;;;;;;;-0.52;100.00;98264.91;1223858;75;2923825;-67
2024/02/14 01:28:35;;;;;;;2.30;1.60;;;;;;;-0.52;100.00;98267.59;1225081;75;2923286;-67
2024/02/14 01:31:08;;;;;;;3.45;2.00;;;;;;;-0.63;100.00;98268.75;1224694;75;2923901;-65
2024/02/14 01:33:43;;;;;;;2.25;1.50;;;;;;;-0.55;100.00;98267.59;1224606;75;2924306;-67
2024/02/14 01:36:16;;;;;;;2.30;1.60;;;;;;;-0.50;100.00;98276.03;1224277;75;2924723;-67
2024/02/14 01:38:49;;;;;;;4.35;2.45;;;;;;;-0.86;100.00;98269.91;1224134;75;2916687;-66
2024/02/14 01:41:22;;;;;;;2.70;2.20;;;;;;;-0.83;100.00;98284.50;1224837;75;2915191;-65
2024/02/14 01:43:55;;;;;;;4.05;1.90;;;;;;;-0.93;100.00;98284.09;1225479;75;2919941;-67
2024/02/14 01:46:28;;;;;;;2.35;1.75;;;;;;;-0.79;100.00;98279.91;1224241;75;2921619;-67
2024/02/14 01:49:03;;;;;;;1.75;1.40;;;;;;;-0.73;100.00;98287.19;1224066;75;2937412;-66
2024/02/14 01:51:38;;;;;;;2.35;1.55;;;;;;;-0.88;100.00;98283.72;1224405;75;2919829;-66
2024/02/14 01:54:13;;;;;;;1.50;1.30;;;;;;;-0.86;100.00;98280.66;1224178;75;2916361;-66
2024/02/14 01:56:47;;;;;;;2.00;1.40;;;;;;;-0.80;100.00;98284.50;1224278;75;2924279;-65
2024/02/14 01:59:20;;;;;;;1.45;1.25;;;;;;;-0.89;100.00;98276.03;1224502;75;2927027;-67
2024/02/14 02:01:53;;;;;;;2.05;1.45;;;;;;;-0.86;100.00;98277.97;1224571;75;2923206;-66
2024/02/14 02:04:28;;;;;;;3.70;2.30;;;;;;;-1.07;100.00;98284.09;1224533;75;2920819;-67
2024/02/14 02:07:01;;;;;;;3.40;2.30;;;;;;;-1.08;100.00;98275.28;1223710;75;2918840;-65
2024/02/14 02:09:34;;;;;;;2.80;2.10;;;;;;;-0.99;100.00;98279.50;1222688;75;2921132;-68
2024/02/14 02:12:08;;;;;;;3.85;2.35;;;;;;;-0.97;100.00;98277.19;1223032;75;2923829;-66
2024/02/14 02:14:41;;;;;;;2.85;2.05;;;;;;;-1.09;100.00;98272.97;1224399;75;2938373;-65
2024/02/14 02:17:15;;;;;;;3.10;2.10;;;;;;;-1.03;100.00;98278.72;1223165;75;2916751;-66
2024/02/14 02:19:50;;;;;;;3.45;2.20;;;;;;;-1.33;100.00;98277.13;1224479;75;2925707;-66
2024/02/14 02:22:23;;;;;;;4.20;2.55;;;;;;;-1.29;100.00;98276.00;1223991;75;2925570;-68
2024/02/14 02:24:59;;;;;;;2.80;2.15;;;;;;;-1.15;100.00;98272.56;1223761;75;2919717;-65
2024/02/14 02:27:32;;;;;;;3.25;2.25;;;;;;;-1.30;100.00;98271.78;1224194;75;2915476;-65
2024/02/14 02:30:05;;;;;;;2.90;2.05;;;;;;;-1.21;100.00;98267.97;1224259;75;2920962;-66
2024/02/14 02:32:37;;;;;;;2.85;2.10;;;;;;;-1.23;100.00;98278.31;1224037;75;2922612;-66
2024/02/14 02:35:11;;;;;;;3.15;2.35;;;;;;;-1.34;100.00;98278.31;1223948;75;2920188;-65
2024/02/14 02:37:45;;;;;;;3.60;2.30;;;;;;;-1.35;100.00;98282.91;1224605;75;2916642;-66
2024/02/14 02:40:21;;;;;;;3.50;2.10;;;;;;;-1.26;100.00;98284.44;1224012;75;2924412;-65
2024/02/14 02:42:54;;;;;;;1.90;1.45;;;;;;;-1.20;100.00;98294.44;1224223;75;2930466;-66
2024/02/14 02:45:28;;;;;;;2.20;1.50;;;;;;;-1.25;100.00;98300.19;1223655;75;2929777;-67
2024/02/14 02:48:02;;;;;;;2.25;1.40;;;;;;;-1.31;100.00;98296.34;1223249;75;2916197;-66
2024/02/14 02:50:35;;;;;;;2.40;1.60;;;;;;;-1.37;100.00;98300.53;1223839;75;2929919;-66
2024/02/14 02:53:08;;;;;;;2.90;1.60;;;;;;;-1.34;100.00;98297.09;1223781;75;2930821;-66
2024/02/14 02:55:43;;;;;;;10.65;4.75;;;;;;;-1.61;100.00;98296.63;1223761;75;2930238;-65
2024/02/14 02:58:16;;;;;;;11.15;5.60;;;;;;;-1.57;100.00;98295.47;1224217;75;2923431;-65
2024/02/14 03:00:49;;;;;;;10.40;4.70;;;;;;;-1.52;100.00;98300.47;1224643;75;2926060;-66
2024/02/14 03:03:22;;;;;;;6.80;4.10;;;;;;;-1.52;100.00;98302.41;1224506;75;2921151;-66
2024/02/14 03:05:56;;;;;;;5.15;3.10;;;;;;;-1.32;100.00;98309.00;1223644;75;2920116;-65
2024/02/14 03:08:30;;;;;;;5.50;2.90;;;;;;;-1.35;100.00;98306.28;1224623;75;2914823;-65
2024/02/14 03:11:09;;;;;;;4.95;3.15;;;;;;;-1.42;100.00;98304.38;1224355;75;2918561;-66
2024/02/14 03:13:44;;;;;;;3.55;2.10;;;;;;;-1.37;100.00;98304.00;1223593;75;2918425;-64
2024/02/14 03:16:17;;;;;;;2.00;1.70;;;;;;;-1.37;100.00;98305.91;1224186;75;2922155;-64
2024/02/14 03:18:50;;;;;;;3.15;2.05;;;;;;;-1.48;100.00;98305.88;1224156;75;2919246;-65
2024/02/14 03:21:23;;;;;;;3.50;1.95;;;;;;;-1.56;100.00;98313.16;1224834;75;2917337;-66
2024/02/14 03:23:56;;;;;;;2.90;1.90;;;;;;;-1.81;100.00;98309.56;1224496;75;2918288;-67
2024/02/14 03:26:33;;;;;;;3.15;2.50;;;;;;;-1.77;100.00;98310.38;1223475;75;2924459;-66
2024/02/14 03:29:07;;;;;;;3.60;2.10;;;;;;;-1.60;100.00;98308.91;1224363;75;2916873;-67
2024/02/14 03:31:40;;;;;;;1.95;1.60;;;;;;;-1.60;100.00;98315.03;1223787;75;2918529;-66
2024/02/14 03:34:13;;;;;;;2.35;1.75;;;;;;;-1.62;100.00;98320.00;1223803;75;2923145;-65
2024/02/14 03:36:46;;;;;;;1.45;1.30;;;;;;;-1.60;100.00;98319.66;1223827;75;2916472;-64
2024/02/14 03:39:18;;;;;;;2.35;1.50;;;;;;;-1.61;100.00;98321.56;1224163;75;2921257;-65
2024/02/14 03:41:54;;;;;;;2.20;1.60;;;;;;;-1.58;100.00;98311.97;1222512;75;2953684;-66
2024/02/14 03:44:27;;;;;;;1.50;1.30;;;;;;;-1.59;100.00;98319.28;1224099;75;2923225;-65
2024/02/14 03:47:00;;;;;;;1.95;1.15;;;;;;;-1.63;100.00;98318.50;1223842;75;2928269;-66
2024/02/14 03:49:33;;;;;;;2.25;1.50;;;;;;;-1.64;100.00;98322.31;1223827;75;2926993;-66
2024/02/14 03:52:09;;;;;;;2.95;1.40;;;;;;;-1.68;100.00;98326.13;1223952;83;2930383;-65
2024/02/14 03:54:42;;;;;;;2.05;1.30;;;;;;;-1.71;100.00;98322.28;1222559;75;2920730;-68
2024/02/14 03:57:18;;;;;;;1.35;1.20;;;;;;;-1.72;100.00;98326.88;1223861;75;2920325;-68
2024/02/14 03:59:52;;;;;;;2.55;1.25;;;;;;;-1.77;100.00;98334.53;1223691;75;2919660;-67
2024/02/14 04:02:25;;;;;;;1.80;1.40;;;;;;;-1.76;100.00;98334.13;1224180;75;2920783;-65
2024/02/14 04:04:58;;;;;;;1.65;1.25;;;;;;;-1.82;100.00;98334.88;1223653;75;2916004;-67
2024/02/14 04:07:32;;;;;;;2.90;1.70;;;;;;;-1.75;100.00;98343.75;1223620;75;2925524;-67
2024/02/14 04:10:04;;;;;;;1.75;1.40;;;;;;;-1.68;100.00;98343.00;1223031;75;2917128;-65
2024/02/14 04:12:40;;;;;;;1.55;1.10;;;;;;;-1.72;100.00;98342.22;1223638;75;2948937;-66
2024/02/14 04:15:13;;;;;;;2.00;1.50;;;;;;;-1.74;100.00;98344.50;1223692;75;2923782;-68
2024/02/14 04:17:46;;;;;;;1.75;1.30;;;;;;;-1.71;100.00;98341.06;1223568;75;2926012;-68
2024/02/14 04:20:19;;;;;;;1.65;1.20;;;;;;;-1.72;100.00;98345.66;1223235;75;2931461;-65
2024/02/14 04:22:52;;;;;;;5.70;2.20;;;;;;;-1.74;100.00;98331.84;1223837;75;2928871;-65
2024/02/14 04:25:25;;;;;;;1.65;1.40;;;;;;;-1.68;100.00;98334.16;1223905;75;2921483;-66
2024/02/14 04:28:01;;;;;;;3.25;1.90;;;;;;;-1.68;100.00;98331.47;1223558;75;2929281;-66
2024/02/14 04:30:36;;;;;;;2.35;1.80;;;;;;;-1.83;100.00;98330.66;1224242;75;2928017;-65
2024/02/14 04:33:09;;;;;;;2.60;1.80;;;;;;;-1.91;100.00;98337.91;1223334;75;2921576;-65
2024/02/14 04:35:42;;;;;;;3.10;2.00;;;;;;;-2.00;100.00;98340.13;1223829;75;2918701;-67
2024/02/14 04:38:15;;;;;;;2.70;1.90;;;;;;;-2.04;100.00;98350.88;1223082;75;2920967;-65
2024/02/14 04:40:48;;;;;;;2.35;1.70;;;;;;;-1.97;100.00;98347.47;1223471;75;2922495;-65
2024/02/14 04:43:23;;;;;;;1.95;1.65;;;;;;;-1.88;100.00;98350.56;1223515;75;2933497;-64
2024/02/14 04:45:56;;;;;;;2.15;1.50;;;;;;;-1.88;100.00;98355.16;1222986;75;2929558;-65
2024/02/14 04:48:29;;;;;;;2.50;1.55;;;;;;;-1.90;100.00;98352.06;1223826;75;2925683;-67
2024/02/14 04:51:04;;;;;;;2.25;1.30;;;;;;;-1.87;100.00;98354.78;1224014;75;2918990;-66
2024/02/14 04:53:37;;;;;;;1.60;1.30;;;;;;;-1.93;100.00;98350.91;1223520;75;2921873;-64
2024/02/14 04:56:10;;;;;;;3.65;2.85;;;;;;;-1.95;100.00;98361.25;1223591;75;2923208;-64
2024/02/14 04:58:46;;;;;;;4.80;2.65;;;;;;;-1.82;100.00;98359.03;1224208;75;2923292;-66
2024/02/14 05:01:19;;;;;;;3.95;2.80;;;;;;;-1.79;100.00;98358.28;1223249;75;2927358;-67
2024/02/14 05:03:52;;;;;;;3.10;2.30;;;;;;;-1.80;100.00;98354.06;1223659;75;2920090;-65
2024/02/14 05:06:25;;;;;;;2.95;2.30;;;;;;;-1.88;100.00;98355.16;1223621;75;2922876;-66
2024/02/14 05:08:57;;;;;;;3.15;2.30;;;;;;;-1.82;100.00;98359.81;1223562;83;2921262;-66
2024/02/14 05:11:30;;;;;;;2.45;1.90;;;;;;;-1.85;100.00;98352.50;1223904;75;2922148;-66
2024/02/14 05:14:06;;;;;;;2.70;2.10;;;;;;;-1.80;100.00;98362.88;1223641;75;2927384;-65
2024/02/14 05:16:38;;;;;;;3.00;2.05;;;;;;;-1.84;100.00;98361.31;1223315;75;2922799;-63
2024/02/14 05:19:11;;;;;;;2.95;2.05;;;;;;;-1.86;100.00;98356.31;1223080;75;2924075;-66
2024/02/14 05:21:44;;;;;;;2.95;2.15;;;;;;;-1.71;100.00;98362.53;1223133;75;2927183;-64
2024/02/14 05:24:17;;;;;;;4.10;3.10;;;;;;;-1.76;100.00;98363.66;1222527;75;2935322;-66
2024/02/14 05:26:52;;;;;;;4.90;3.75;;;;;;;-1.75;100.00;98353.72;1222648;75;2931979;-65
2024/02/14 05:29:27;;;;;;;8.90;6.30;;;;;;;-1.87;100.00;98360.16;1223997;75;2924096;-66
2024/02/14 05:32:00;;;;;;;11.50;7.55;;;;;;;-1.88;100.00;98363.22;1223081;75;2929393;-66
2024/02/14 05:34:33;;;;;;;9.20;6.05;;;;;;;-1.88;100.00;98366.66;1222980;75;2927875;-66
2024/02/14 05:37:07;;;;;;;8.85;5.85;;;;;;;-1.86;100.00;98363.59;1222740;75;2929840;-66
2024/02/14 05:39:41;;;;;;;12.35;6.85;;;;;;;-2.00;100.00;98369.66;1223450;75;2930104;-65
2024/02/14 05:42:13;;;;;;;12.40;7.95;;;;;;;-1.98;100.00;98365.44;1223432;75;2922814;-67
2024/02/14 05:44:49;;;;;;;13.05;8.45;;;;;;;-1.96;100.00;98370.47;1223355;75;2925525;-66
2024/02/14 05:47:22;;;;;;;13.20;8.15;;;;;;;-1.97;100.00;98366.25;1222041;75;2920646;-67
2024/02/14 05:49:54;;;;;;;9.15;6.45;;;;;;;-2.02;100.00;98370.03;1223610;75;2923668;-66
2024/02/14 05:52:27;;;;;;;6.70;4.80;;;;;;;-2.12;100.00;98364.59;1222543;75;2928217;-65
2024/02/14 05:55:00;;;;;;;6.30;4.65;;;;;;;-2.09;100.00;98361.16;1223136;75;2928398;-65
2024/02/14 05:57:33;;;;;;;4.95;3.15;;;;;;;-2.11;100.00;98369.59;1223641;75;2926189;-65
2024/02/14 06:00:12;;;;;;;6.55;2.95;;;;;;;-2.12;100.00;98365.34;1222747;75;2933858;-65
2024/02/14 06:02:45;;;;;;;4.35;2.65;;;;;;;-2.11;100.00;98366.91;1223571;75;2920993;-68
2024/02/14 06:05:18;;;;;;;2.35;1.90;;;;;;;-2.15;100.00;98369.56;1222334;75;2922611;-65
2024/02/14 06:07:51;;;;;;;3.50;2.35;;;;;;;-2.19;100.00;98368.78;1223541;75;2921320;-65
2024/02/14 06:10:25;;;;;;;3.15;1.80;;;;;;;-2.12;100.00;98368.03;1222625;75;2929735;-66
2024/02/14 06:12:58;;;;;;;2.75;1.95;;;;;;;-2.12;100.00;98372.66;1223117;75;2934679;-66
2024/02/14 06:15:34;;;;;;;3.40;2.25;;;;;;;-2.18;100.00;98378.34;1222854;75;2930707;-66
2024/02/14 06:18:07;;;;;;;3.45;2.20;;;;;;;-2.15;100.00;98380.28;1222567;75;2923243;-67
2024/02/14 06:20:40;;;;;;;4.65;2.90;;;;;;;-2.27;100.00;98375.22;1222283;75;2926037;-67
2024/02/14 06:23:13;;;;;;;4.10;3.35;;;;;;;-2.28;100.00;98381.75;1222093;75;2929309;-66
2024/02/14 06:25:49;;;;;;;4.95;3.05;;;;;;;-2.12;100.00;98384.13;1218169;75;2936081;-67
2024/02/14 06:28:22;;;;;;;5.05;2.70;;;;;;;-2.11;100.00;98388.38;1221678;75;2929967;-67
2024/02/14 06:30:57;;;;;;;4.30;3.50;;;;;;;-2.16;100.00;98394.84;1222603;75;2924157;-66
2024/02/14 06:33:30;;;;;;;6.10;4.35;;;;;;;-1.97;100.00;98387.72;1223947;75;2918418;-66
2024/02/14 06:36:03;;;;;;;6.75;4.15;;;;;;;-2.09;100.00;98396.03;1219968;75;3065711;-66
2024/02/14 06:38:36;;;;;;;5.55;3.45;;;;;;;-2.07;100.00;98396.44;1223135;75;2921227;-66
2024/02/14 06:41:09;;;;;;;5.75;3.15;;;;;;;-2.01;100.00;98400.31;1223139;75;2926757;-66
2024/02/14 06:43:42;;;;;;;5.00;3.10;;;;;;;-1.82;100.00;98402.75;1223988;75;2921462;-64
2024/02/14 06:46:17;;;;;;;4.30;2.40;;;;;;;-1.66;100.00;98404.34;1223530;75;2940763;-66
2024/02/14 06:48:50;;;;;;;2.80;1.95;;;;;;;-1.63;100.00;98417.81;1223861;75;2923315;-64
2024/02/14 06:51:23;;;;;;;5.05;2.95;;;;;;;-0.93;100.00;98418.50;1222895;75;2920124;-67
2024/02/14 06:53:56;;;;;;;8.70;3.60;;;;;;;-1.25;100.00;98418.38;1223155;67;2931038;-65
2024/02/14 06:56:32;;;;;;;8.05;4.45;;;;;;;-1.29;100.00;98425.66;1222887;75;2927655;-67
2024/02/14 06:59:05;;;;;;;5.80;3.60;;;;;;;-1.11;100.00;98423.81;1224049;75;2925587;-65
2024/02/14 07:01:41;;;;;;;6.80;4.55;;;;;;;1.45;100.00;98417.69;1222867;75;2923030;-64
2024/02/14 07:04:13;;;;;;;6.75;4.45;;;;;;;3.61;89.67;98427.75;1223328;75;2921695;-65
2024/02/14 07:06:46;;;;;;;12.10;7.80;;;;;;;5.10;79.53;98420.06;1222895;75;2922227;-64
2024/02/14 07:09:19;;;;;;;11.45;6.95;;;;;;;6.81;70.95;98414.41;1220022;75;2931254;-67
2024/02/14 07:11:53;;;;;;;9.40;5.90;;;;;;;8.83;62.91;98415.06;1223204;75;2931056;-67
2024/02/14 07:14:26;;;;;;;12.05;5.75;;;;;;;9.13;59.27;98415.53;1222520;75;2923955;-66
2024/02/14 07:17:01;;;;;;;8.20;5.20;;;;;;;10.03;57.51;98416.31;1222830;75;2925886;-66
2024/02/14 07:19:34;;;;;;;8.25;5.45;;;;;;;10.76;54.60;98417.59;1223333;75;2919646;-66
2024/02/14 07:22:09;;;;;;;8.65;5.60;;;;;;;10.65;53.66;98434.50;1223037;75;2927218;-65
2024/02/14 07:24:42;;;;;;;8.15;5.25;;;;;;;11.94;51.48;98436.88;1223505;75;2922761;-65
2024/02/14 07:27:18;;;;;;;7.75;5.00;;;;;;;12.61;49.34;98436.75;1223414;75;2928885;-66
2024/02/14 07:29:51;;;;;;;8.40;5.00;;;;;;;11.18;52.10;98433.34;1221577;75;2925940;-66
2024/02/14 07:32:27;;;;;;;6.70;4.45;;;;;;;11.75;50.51;98438.19;1223710;75;2926164;-66
2024/02/14 07:35:00;;;;;;;6.35;4.55;;;;;;;12.03;49.88;98449.81;1222653;75;2923530;-65
2024/02/14 07:37:34;;;;;;;4.90;3.65;;;;;;;14.50;46.98;98441.41;1223193;75;2924196;-66
2024/02/14 07:40:10;;;;;;;6.80;4.00;;;;;;;15.02;45.08;98435.25;1223519;75;2926722;-66
2024/02/14 07:42:43;;;;;;;5.55;3.25;;;;;;;16.53;42.93;98427.19;1222882;75;2922561;-67
2024/02/14 07:45:17;;;;;;;4.80;3.35;;;;;;;17.50;40.48;98426.09;1221402;75;2927634;-66
2024/02/14 07:47:53;;;;;;;6.80;3.75;;;;;;;14.65;42.66;98420.09;1223178;75;2923058;-65
2024/02/14 07:50:27;;;;;;;5.30;3.50;;;;;;;18.68;38.69;98422.25;1223327;75;2923557;-66
2024/02/14 07:53:01;;;;;;;5.85;3.15;;;;;;;18.37;37.95;98426.94;1222452;75;2927709;-66
2024/02/14 07:55:34;;;;;;;4.75;2.70;;;;;;;18.94;36.67;98430.19;1224124;75;2917934;-67
2024/02/14 07:58:07;;;;;;;7.20;3.30;;;;;;;21.00;34.54;98415.97;1111551;75;15040088;-66
2024/02/14 08:00:40;;;;;;;5.50;2.75;;;;;;;21.45;33.66;98421.63;1222713;75;2901556;-66
2024/02/14 08:03:18;;;;;;;3.80;2.10;;;;;;;20.58;33.60;98421.09;1222804;75;2973936;-66
2024/02/14 08:05:51;;;;;;;4.50;2.60;;;;;;;20.50;34.07;98425.75;1204143;75;4150515;-65
2024/02/14 08:08:26;;;;;;;4.20;2.25;;;;;;;19.75;34.62;98418.75;1222959;75;2922640;-67
2024/02/14 08:10:59;;;;;;;4.90;2.45;;;;;;;19.12;35.80;98412.94;1223096;75;2924126;-68
2024/02/14 08:13:32;;;;;;;2.60;1.80;;;;;;;17.78;37.42;98428.09;1223618;75;2896960;-66
2024/02/14 08:16:09;;;;;;;2.80;2.10;;;;;;;16.61;38.52;98425.47;1223340;75;2920544;-66
2024/02/14 08:18:46;;;;;;;4.05;2.40;;;;;;;14.71;42.15;98425.66;1223129;75;2921027;-65
2024/02/14 08:21:18;;;;;;;2.75;2.10;;;;;;;15.08;41.27;98422.25;1223189;75;2922816;-67
2024/02/14 08:23:51;;;;;;;7.25;2.90;;;;;;;13.58;43.71;98426.19;1223513;75;2891262;-66
2024/02/14 08:26:25;;;;;;;4.65;2.95;;;;;;;12.44;46.10;98436.44;1223136;75;2927651;-67
2024/02/14 08:28:58;;;;;;;5.00;2.95;;;;;;;11.90;47.57;98433.53;1223798;75;2916462;-66
2024/02/14 08:31:32;;;;;;;6.95;3.10;;;;;;;12.61;48.29;98419.53;1223554;75;2925767;-67
2024/02/14 08:34:09;;;;;;;4.25;2.70;;;;;;;14.16;46.58;98424.47;1223520;75;2922976;-66
2024/02/14 08:36:42;;;;;;;7.45;3.60;;;;;;;13.04;46.33;98423.53;1223823;75;2917513;-68
2024/02/14 08:39:15;;;;;;;7.10;3.15;;;;;;;12.46;49.50;98416.72;1223297;75;2922946;-66
2024/02/14 08:41:49;;;;;;;5.90;3.60;;;;;;;12.26;50.20;98418.09;1223641;75;2918803;-66
2024/02/14 08:44:22;;;;;;;7.00;3.80;;;;;;;11.33;51.59;98419.78;1221351;75;2919138;-66
2024/02/14 08:46:55;;;;;;;7.40;3.80;;;;;;;11.12;52.96;98416.00;1222203;75;2926044;-65
2024/02/14 08:49:31;;;;;;;6.30;3.85;;;;;;;12.13;51.07;98426.56;1221292;75;3084770;-66
2024/02/14 08:52:03;;;;;;;8.25;3.65;;;;;;;11.55;51.89;98422.28;1223496;75;2919346;-66
2024/02/14 08:54:37;;;;;;;9.95;4.50;;;;;;;9.77;55.21;98426.00;1221897;75;2927191;-66
2024/02/14 08:57:10;;;;;;;8.25;4.20;;;;;;;8.78;57.85;98432.00;1222429;75;2927019;-67
2024/02/14 08:59:46;;;;;;;6.20;3.95;;;;;;;9.97;55.78;98420.09;1223568;75;2925153;-69
2024/02/14 09:02:20;;;;;;;5.60;3.80;;;;;;;9.87;56.21;98410.38;1223359;75;2925506;-66
2024/02/14 09:04:57;;;;;;;7.10;3.70;;;;;;;9.73;55.69;98406.97;1222486;75;2928512;-67
2024/02/14 09:07:31;;;;;;;6.05;3.65;;;;;;;9.21;57.63;98403.13;1221995;75;2937343;-68
2024/02/14 09:10:04;;;;;;;6.05;3.95;;;;;;;9.59;58.77;98397.34;1222541;75;2916768;-67
2024/02/14 09:12:37;;;;;;;9.50;4.65;;;;;;;9.29;58.22;98411.81;1222676;75;2933600;-68
2024/02/14 09:15:11;;;;;;;8.70;4.00;;;;;;;9.03;59.41;98405.78;1222959;75;2923190;-65
2024/02/14 09:17:44;;;;;;;6.65;3.70;;;;;;;8.02;61.65;98411.94;1225101;75;2921469;-66
2024/02/14 09:20:20;;;;;;;9.35;4.15;;;;;;;8.21;60.99;98412.88;1223571;75;2927159;-65
2024/02/14 09:22:53;;;;;;;12.55;4.20;;;;;;;8.50;58.47;98401.78;1224105;75;2940848;-67
2024/02/14 09:25:26;;;;;;;7.75;3.80;;;;;;;8.94;59.34;98401.75;1223791;75;2927554;-66
2024/02/14 09:27:58;;;;;;;5.70;3.15;;;;;;;8.59;59.16;98403.06;1223568;75;2923680;-65
2024/02/14 09:30:31;;;;;;;5.00;3.05;;;;;;;9.97;57.02;98400.97;1221161;75;2976599;-68
2024/02/14 09:33:06;;;;;;;7.70;3.30;;;;;;;9.34;57.26;98408.50;1222961;75;2924042;-65
2024/02/14 09:35:44;;;;;;;6.80;3.90;;;;;;;9.59;58.12;98413.00;1189655;75;5511584;-65
2024/02/14 09:38:17;;;;;;;6.20;3.40;;;;;;;10.17;57.35;98414.97;1221839;75;2927472;-68
2024/02/14 09:40:50;;;;;;;7.35;3.80;;;;;;;11.25;55.69;98410.34;1223700;75;2929828;-66
2024/02/14 09:43:35;;;;;;;6.85;4.15;;;;;;;10.71;52.77;98407.25;1224055;75;2929203;-68
2024/02/14 09:46:08;;;;;;;5.00;2.80;;;;;;;11.99;49.57;98402.56;1223290;75;2932593;-66
2024/02/14 09:48:43;;;;;;;5.20;2.55;;;;;;;12.73;50.86;98408.25;1224030;75;2915176;-66
2024/02/14 09:51:19;;;;;;;4.45;2.65;;;;;;;12.55;48.46;98405.66;1223385;75;2922140;-66
2024/02/14 09:53:50;;;;;;;8.55;2.80;;;;;;;13.66;47.52;98399.78;1223177;75;2927377;-65
2024/02/14 09:56:25;;;;;;;4.90;2.75;;;;;;;13.46;46.19;98406.00;1222118;75;2922761;-66
2024/02/14 09:59:00;;;;;;;9.35;2.30;;;;;;;12.90;47.12;98408.56;1223188;75;2928597;-66
2024/02/14 10:01:33;;;;;;;4.25;1.85;;;;;;;13.71;45.57;98403.84;1223224;75;2923843;-64
2024/02/14 10:04:05;;;;;;;8.15;2.25;;;;;;;14.73;44.02;98401.13;1222363;75;2921550;-67
2024/02/14 10:06:41;;;;;;;4.20;2.40;;;;;;;13.98;46.07;98389.72;1223053;75;2938640;-67
2024/02/14 10:09:14;;;;;;;5.30;3.10;;;;;;;13.83;45.70;98389.78;1223420;75;2923805;-65
2024/02/14 10:11:49;;;;;;;5.25;2.65;;;;;;;13.72;45.77;98391.63;1222260;75;2925261;-65
2024/02/14 10:14:22;;;;;;;4.35;2.40;;;;;;;13.48;46.06;98389.78;1223147;75;2925280;-66
2024/02/14 10:16:55;;;;;;;4.50;2.25;;;;;;;12.83;46.70;98395.19;1222484;75;2924238;-67
2024/02/14 10:19:28;;;;;;;4.55;2.40;;;;;;;12.52;47.04;98385.38;1222816;67;2929429;-64
2024/02/14 10:22:05;;;;;;;4.45;2.30;;;;;;;13.11;45.63;98394.94;1222717;75;2922536;-64
2024/02/14 10:24:38;;;;;;;4.55;2.50;;;;;;;13.39;45.53;98379.63;1221916;75;2928196;-68
2024/02/14 10:27:14;;;;;;;5.10;2.45;;;;;;;14.09;44.36;98377.34;1221037;75;2923261;-66
2024/02/14 10:29:47;;;;;;;2.90;1.75;;;;;;;14.53;44.58;98368.06;1220324;75;2930220;-66
2024/02/14 10:32:20;;;;;;;5.60;2.20;;;;;;;14.74;43.83;98368.81;1223703;75;2924857;-66
2024/02/14 10:34:53;;;;;;;3.70;1.80;;;;;;;14.53;42.87;98363.31;1223798;75;2931332;-66
2024/02/14 10:37:29;;;;;;;4.85;2.05;;;;;;;16.35;41.64;98364.06;1223561;75;2924649;-68
2024/02/14 10:40:06;;;;;;;5.95;2.75;;;;;;;16.80;41.29;98372.50;1223267;75;2925613;-65
2024/02/14 10:42:40;;;;;;;4.30;2.10;;;;;;;15.01;41.26;98367.53;1223903;75;2920996;-68
2024/02/14 10:45:14;;;;;;;4.85;2.55;;;;;;;16.91;40.56;98355.16;1223218;75;2914813;-65
2024/02/14 10:47:49;;;;;;;4.80;1.70;;;;;;;15.36;40.71;98345.25;1223973;75;2920206;-65
2024/02/14 10:50:25;;;;;;;6.55;2.45;;;;;;;15.16;41.70;98345.38;1223860;75;2920471;-67
2024/02/14 10:53:03;;;;;;;4.80;2.10;;;;;;;17.14;39.44;98348.38;1223612;75;2927291;-67
2024/02/14 10:55:39;;;;;;;4.20;2.40;;;;;;;15.93;41.10;98338.81;1223927;75;2924996;-66
2024/02/14 10:58:14;;;;;;;6.10;2.55;;;;;;;15.74;40.36;98340.50;1223697;75;2920599;-66
2024/02/14 11:00:48;;;;;;;7.35;2.55;;;;;;;15.84;40.42;98336.25;1224061;75;2928061;-67
2024/02/14 11:03:22;;;;;;;3.35;2.10;;;;;;;15.77;40.24;98345.75;1224200;75;2902123;-65
2024/02/14 11:06:02;;;;;;;3.90;1.90;;;;;;;16.35;39.61;98334.44;1223943;75;2928228;-66
2024/02/14 11:08:38;;;;;;;5.30;2.30;;;;;;;15.09;41.35;98330.03;1223656;75;2919847;-67
2024/02/14 11:11:11;;;;;;;4.35;2.15;;;;;;;15.11;42.08;98330.28;1223505;75;2922039;-66
2024/02/14 11:13:46;;;;;;;5.35;2.20;;;;;;;15.82;42.62;98330.47;1223202;75;2937964;-66
2024/02/14 11:16:19;;;;;;;4.10;1.90;;;;;;;16.30;42.24;98334.44;1224518;75;2865997;-66
2024/02/14 11:18:53;;;;;;;3.15;2.05;;;;;;;16.26;41.28;98328.38;1223941;75;2920068;-64
2024/02/14 11:21:33;;;;;;;3.75;2.00;;;;;;;16.66;41.19;98313.38;1223358;75;2926209;-64
2024/02/14 11:24:14;;;;;;;4.50;1.90;;;;;;;16.26;40.33;98322.84;1222967;75;2921518;-68
2024/02/14 11:26:55;;;;;;;3.10;1.80;;;;;;;16.04;39.45;98318.00;1223085;75;2926143;-66
2024/02/14 11:29:33;;;;;;;4.00;2.00;;;;;;;15.38;42.66;98306.88;1223913;75;2946130;-66
2024/02/14 11:32:09;;;;;;;3.45;2.30;;;;;;;15.33;42.02;98305.59;1223133;75;2924072;-67
2024/02/14 11:34:42;;;;;;;2.90;1.60;;;;;;;15.95;41.93;98307.97;1224254;75;2919456;-66
2024/02/14 11:37:23;;;;;;;3.70;2.00;;;;;;;15.80;41.35;98310.13;1224017;75;2922341;-68
2024/02/14 11:39:59;;;;;;;3.40;2.10;;;;;;;15.92;42.68;98308.94;1222509;75;2924599;-64
2024/02/14 11:42:32;;;;;;;3.25;1.70;;;;;;;16.63;41.84;98305.34;1223956;75;2920485;-66